M/y Voyager — HO3191 — position and weather

sailwx.info

Track history (hours):
 
Tides and Currents Weather Stations Pressure Air Temp Water Temp Dewpoint Dewpoint Depression Visibility Wind Speed Wind Dir Waves Ship Positions

M/y Voyager

Last reported at 2017-Sep-25 11:06 UTC. Time now 2017-Nov-21 00:58 UTC.
Position N 37°39' E 023°55'.
Warning: this ship's position is 56 days out of date.

Length 61 m.

Type: Other ship. MMSI: 353270000.

Date/timePositionNaut miles runAvg speedWind from/ knotsBaromVisibWave heightAir tempDewpointWater temp
2017-Sep-25 11:06N 37°39' E 023°55'810.8
2017-Sep-25 10:20N 37°46' E 023°50'3 5.5
2017-Sep-25 09:52N 37°49' E 023°48'0 0.1
2017-Sep-25 09:25N 37°49' E 023°48'0 0.0
2017-Sep-25 08:58N 37°49' E 023°48'0 0.0
2017-Sep-25 08:19N 37°49' E 023°48'0 0.0
2017-Sep-25 07:49N 37°49' E 023°48'0 0.0
2017-Sep-25 07:19N 37°49' E 023°48'0 0.0
2017-Sep-25 06:55N 37°49' E 023°48'0 0.0
2017-Sep-25 06:28N 37°49' E 023°48'0 0.0
2017-Sep-25 05:58N 37°49' E 023°48'0 0.0
2017-Sep-25 05:28N 37°49' E 023°48'0 0.0
2017-Sep-25 04:58N 37°49' E 023°48'0 0.0
2017-Sep-25 04:28N 37°49' E 023°48'0 0.0
2017-Sep-25 03:58N 37°49' E 023°48'0 0.0
2017-Sep-25 03:28N 37°49' E 023°48'0 0.0
2017-Sep-25 02:55N 37°49' E 023°48'0 0.0
2017-Sep-25 02:28N 37°49' E 023°48'0 0.0
2017-Sep-25 01:55N 37°49' E 023°48'0 0.0
2017-Sep-25 01:28N 37°49' E 023°48'0 0.0
2017-Sep-25 00:55N 37°49' E 023°48'0 0.0
2017-Sep-25 00:22N 37°49' E 023°48'0 0.0
2017-Sep-24 23:58N 37°49' E 023°48'0 0.0
2017-Sep-24 23:19N 37°49' E 023°48'0 0.0
2017-Sep-24 22:43N 37°49' E 023°48'0 0.0
2017-Sep-24 22:25N 37°49' E 023°48'0 0.0
2017-Sep-24 21:55N 37°49' E 023°48'0 0.0
2017-Sep-24 21:28N 37°49' E 023°48'0 0.0
2017-Sep-24 20:55N 37°49' E 023°48'0 0.0
2017-Sep-24 20:28N 37°49' E 023°48'0 0.0
2017-Sep-24 19:55N 37°49' E 023°48'0 0.1
2017-Sep-24 19:30N 37°49' E 023°48'4 8.4
2017-Sep-24 19:00N 37°44' E 023°48'510.0
2017-Sep-24 18:30N 37°39' E 023°47'6 9.8
2017-Sep-24 17:53N 37°35' E 023°42'410.1
2017-Sep-24 17:29N 37°32' E 023°38'14 9.9
2017-Sep-24 16:08N 37°22' E 023°27'110.0
2017-Sep-24 16:00N 37°21' E 023°26'2 2.0
2017-Sep-24 15:11N 37°20' E 023°25'1 4.1
2017-Sep-24 15:00N 37°20' E 023°24'3 0.4
2017-Sep-24 06:54N 37°21' E 023°20'4 8.8
2017-Sep-24 06:28N 37°21' E 023°25'  
Track history (hours):
 
Tides and Currents Weather Stations Pressure Air Temp Water Temp Dewpoint Dewpoint Depression Visibility Wind Speed Wind Dir Waves Ship Positions

M/y Voyager

Last reported at 2017-Sep-25 11:06 UTC. Time now 2017-Nov-21 00:58 UTC.
Position N 37°39' E 023°55'.
Warning: this ship's position is 56 days out of date.

Length 61 m.

Type: Other ship. MMSI: 353270000.

Date/timePositionNaut miles runAvg speedWind from/ knotsBaromVisibWave heightAir tempDewpointWater temp
2017-Sep-25 11:06N 37°39' E 023°55'810.8
2017-Sep-25 10:20N 37°46' E 023°50'3 5.5
2017-Sep-25 09:52N 37°49' E 023°48'0 0.1
2017-Sep-25 09:25N 37°49' E 023°48'0 0.0
2017-Sep-25 08:58N 37°49' E 023°48'0 0.0
2017-Sep-25 08:19N 37°49' E 023°48'0 0.0
2017-Sep-25 07:49N 37°49' E 023°48'0 0.0
2017-Sep-25 07:19N 37°49' E 023°48'0 0.0
2017-Sep-25 06:55N 37°49' E 023°48'0 0.0
2017-Sep-25 06:28N 37°49' E 023°48'0 0.0
2017-Sep-25 05:58N 37°49' E 023°48'0 0.0
2017-Sep-25 05:28N 37°49' E 023°48'0 0.0
2017-Sep-25 04:58N 37°49' E 023°48'0 0.0
2017-Sep-25 04:28N 37°49' E 023°48'0 0.0
2017-Sep-25 03:58N 37°49' E 023°48'0 0.0
2017-Sep-25 03:28N 37°49' E 023°48'0 0.0
2017-Sep-25 02:55N 37°49' E 023°48'0 0.0
2017-Sep-25 02:28N 37°49' E 023°48'0 0.0
2017-Sep-25 01:55N 37°49' E 023°48'0 0.0
2017-Sep-25 01:28N 37°49' E 023°48'0 0.0
2017-Sep-25 00:55N 37°49' E 023°48'0 0.0
2017-Sep-25 00:22N 37°49' E 023°48'0 0.0
2017-Sep-24 23:58N 37°49' E 023°48'0 0.0
2017-Sep-24 23:19N 37°49' E 023°48'0 0.0
2017-Sep-24 22:43N 37°49' E 023°48'0 0.0
2017-Sep-24 22:25N 37°49' E 023°48'0 0.0
2017-Sep-24 21:55N 37°49' E 023°48'0 0.0
2017-Sep-24 21:28N 37°49' E 023°48'0 0.0
2017-Sep-24 20:55N 37°49' E 023°48'0 0.0
2017-Sep-24 20:28N 37°49' E 023°48'0 0.0
2017-Sep-24 19:55N 37°49' E 023°48'0 0.1
2017-Sep-24 19:30N 37°49' E 023°48'4 8.4
2017-Sep-24 19:00N 37°44' E 023°48'510.0
2017-Sep-24 18:30N 37°39' E 023°47'6 9.8
2017-Sep-24 17:53N 37°35' E 023°42'410.1
2017-Sep-24 17:29N 37°32' E 023°38'14 9.9
2017-Sep-24 16:08N 37°22' E 023°27'110.0
2017-Sep-24 16:00N 37°21' E 023°26'2 2.0
2017-Sep-24 15:11N 37°20' E 023°25'1 4.1
2017-Sep-24 15:00N 37°20' E 023°24'3 0.4
2017-Sep-24 06:54N 37°21' E 023°20'4 8.8
2017-Sep-24 06:28N 37°21' E 023°25'  

Dump ship's entire track history